createdAt,value
2022-11-30T00:02:30.175Z,41.93
2022-11-30T00:05:31.862Z,44.00
2022-11-30T00:08:33.566Z,48.50
2022-11-30T00:11:35.196Z,47.77
2022-11-30T00:14:36.900Z,46.83
2022-11-30T00:17:38.433Z,49.47
2022-11-30T00:20:40.039Z,47.77
2022-11-30T00:23:42.510Z,49.80
2022-11-30T00:26:44.189Z,49.00
2022-11-30T00:29:45.894Z,47.60
2022-11-30T00:32:47.543Z,48.00
2022-11-30T00:35:59.110Z,48.07
2022-11-30T00:39:00.743Z,48.23
2022-11-30T00:42:02.273Z,47.30
2022-11-30T00:45:04.039Z,49.57
2022-11-30T00:48:05.741Z,49.03
2022-11-30T00:51:08.539Z,51.17
2022-11-30T00:54:10.104Z,54.10
2022-11-30T00:57:11.767Z,58.00
2022-11-30T01:00:13.582Z,51.17
2022-11-30T01:03:15.158Z,52.43
2022-11-30T01:06:16.735Z,50.37
2022-11-30T01:09:18.260Z,61.53
2022-11-30T01:12:19.801Z,52.83
2022-11-30T01:15:21.441Z,49.90
2022-11-30T01:18:23.086Z,44.77
2022-11-30T01:21:25.937Z,49.67
2022-11-30T01:24:27.575Z,50.73
2022-11-30T01:27:29.303Z,54.70
2022-11-30T01:30:30.919Z,51.10
2022-11-30T01:33:32.674Z,48.07
2022-11-30T01:36:34.309Z,44.70
2022-11-30T01:39:35.952Z,35.23
2022-11-30T01:42:38.138Z,35.03
2022-11-30T01:45:39.787Z,32.20
2022-11-30T01:48:41.333Z,33.10
2022-11-30T01:51:44.752Z,33.80
2022-11-30T01:54:50.163Z,31.10
2022-11-30T01:57:54.624Z,32.07
2022-11-30T02:00:56.426Z,32.90
2022-11-30T02:04:02.102Z,33.07
2022-11-30T02:07:05.825Z,32.10
2022-11-30T02:10:07.632Z,32.50
2022-11-30T02:13:12.060Z,34.00
2022-11-30T02:16:19.584Z,32.83
2022-11-30T02:19:40.196Z,36.07
2022-11-30T02:23:01.198Z,36.53
2022-11-30T02:26:18.068Z,35.00
2022-11-30T02:29:21.416Z,35.43
2022-11-30T02:32:25.928Z,34.53
2022-11-30T02:35:29.613Z,35.13
2022-11-30T02:38:31.278Z,36.77
2022-11-30T02:41:39.839Z,35.73
2022-11-30T02:44:43.094Z,34.90
2022-11-30T02:47:50.952Z,35.10
2022-11-30T02:50:55.114Z,36.07
2022-11-30T02:53:56.784Z,35.70
2022-11-30T02:56:58.329Z,35.50
2022-11-30T03:00:00.684Z,35.33
2022-11-30T03:03:02.348Z,33.87
2022-11-30T03:06:04.115Z,34.47
2022-11-30T03:09:05.708Z,33.40
2022-11-30T03:12:07.437Z,33.60
2022-11-30T03:15:09.277Z,35.57
2022-11-30T03:18:10.862Z,33.67
2022-11-30T03:21:12.770Z,34.70
2022-11-30T03:24:14.374Z,33.93
2022-11-30T03:27:15.957Z,32.27
2022-11-30T03:30:17.556Z,30.77
2022-11-30T03:33:19.114Z,33.03
2022-11-30T03:36:20.708Z,30.47
2022-11-30T03:39:22.431Z,30.60
2022-11-30T03:42:24.032Z,31.90
2022-11-30T03:45:25.603Z,29.53
2022-11-30T03:48:27.206Z,30.17
2022-11-30T03:51:28.794Z,29.30
2022-11-30T03:54:30.403Z,28.97
2022-11-30T03:57:32.019Z,28.30
2022-11-30T04:00:33.620Z,26.23
2022-11-30T04:03:35.395Z,31.27
2022-11-30T04:06:37.028Z,28.50
2022-11-30T04:09:39.264Z,29.17
2022-11-30T04:12:40.943Z,29.50
2022-11-30T04:15:45.580Z,29.00
2022-11-30T04:18:47.531Z,29.30
2022-11-30T04:21:51.594Z,31.30
2022-11-30T04:24:53.361Z,31.27
2022-11-30T04:27:58.249Z,27.97
2022-11-30T04:31:03.010Z,27.30
2022-11-30T04:34:04.885Z,28.53
2022-11-30T04:37:06.610Z,27.07
2022-11-30T04:40:08.642Z,24.80
2022-11-30T04:43:11.374Z,23.00
2022-11-30T04:46:13.381Z,22.47
2022-11-30T04:49:15.031Z,22.53
2022-11-30T04:52:16.686Z,19.10
2022-11-30T04:55:19.485Z,18.17
2022-11-30T04:58:21.213Z,15.63
2022-11-30T05:01:22.886Z,14.43
2022-11-30T05:04:24.598Z,14.40
2022-11-30T05:07:26.253Z,13.73
2022-11-30T05:10:28.675Z,14.07
2022-11-30T05:13:30.200Z,14.57
2022-11-30T05:16:31.866Z,15.37
2022-11-30T05:19:33.610Z,20.00
2022-11-30T05:22:35.346Z,17.43
2022-11-30T05:25:36.972Z,17.43
2022-11-30T05:28:38.525Z,15.33
2022-11-30T05:31:41.050Z,19.53
2022-11-30T05:34:50.597Z,17.77
2022-11-30T05:37:53.111Z,19.73
2022-11-30T05:41:01.585Z,16.87
2022-11-30T05:44:03.210Z,15.90
2022-11-30T05:47:04.947Z,15.87
2022-11-30T05:50:07.066Z,13.40
2022-11-30T05:53:08.781Z,13.17
2022-11-30T05:56:14.566Z,17.83
2022-11-30T05:59:16.174Z,15.47
2022-11-30T06:02:18.051Z,15.23
2022-11-30T06:05:19.665Z,14.87
2022-11-30T06:08:21.762Z,13.77
2022-11-30T06:11:23.340Z,15.03
2022-11-30T06:14:24.914Z,15.07
2022-11-30T06:17:26.533Z,18.33
2022-11-30T06:20:28.104Z,19.20
2022-11-30T06:23:30.011Z,19.63
2022-11-30T06:26:31.638Z,19.53
2022-11-30T06:29:33.271Z,17.67
2022-11-30T06:32:34.884Z,22.87
2022-11-30T06:35:36.535Z,27.03
2022-11-30T06:38:38.128Z,22.27
2022-11-30T06:41:40.136Z,20.23
2022-11-30T06:44:41.660Z,19.77
2022-11-30T06:47:44.464Z,19.87
2022-11-30T06:50:50.096Z,19.40
2022-11-30T06:53:51.901Z,18.13
2022-11-30T06:56:53.511Z,24.90
2022-11-30T06:59:55.372Z,28.17
2022-11-30T07:02:57.036Z,14.97
2022-11-30T07:05:58.652Z,15.47
2022-11-30T07:09:00.237Z,15.40
2022-11-30T07:12:02.227Z,12.07
2022-11-30T07:15:04.240Z,12.77
2022-11-30T07:18:06.052Z,19.40
2022-11-30T07:21:07.691Z,16.07
2022-11-30T07:24:29.931Z,15.67
2022-11-30T07:27:31.517Z,17.60
2022-11-30T07:30:33.092Z,16.53
2022-11-30T07:33:34.701Z,17.27
2022-11-30T07:36:36.773Z,17.53
2022-11-30T07:39:38.385Z,20.57
2022-11-30T07:42:39.936Z,23.10
2022-11-30T07:45:41.528Z,22.80
2022-11-30T07:48:43.807Z,21.00
2022-11-30T07:51:45.712Z,23.57
2022-11-30T07:54:47.483Z,32.23
2022-11-30T07:57:49.358Z,26.87
2022-11-30T08:00:51.193Z,40.33
2022-11-30T08:03:53.640Z,28.70
2022-11-30T08:06:55.484Z,25.47
2022-11-30T08:09:57.098Z,28.40
2022-11-30T08:12:59.276Z,27.60
2022-11-30T08:16:05.334Z,80.50
2022-11-30T08:19:06.972Z,58.90
2022-11-30T08:22:08.599Z,34.90
2022-11-30T08:25:10.162Z,38.20
2022-11-30T08:28:11.835Z,38.03
2022-11-30T08:31:15.581Z,51.60
2022-11-30T08:34:17.460Z,40.33
2022-11-30T08:37:19.101Z,36.57
2022-11-30T08:40:20.692Z,36.83
2022-11-30T08:43:22.328Z,38.53
2022-11-30T08:49:46.048Z,36.50
2022-11-30T08:52:47.672Z,39.03
2022-11-30T08:55:59.257Z,37.80
2022-11-30T08:59:01.070Z,38.77
2022-11-30T09:02:02.958Z,37.73
2022-11-30T09:05:04.803Z,37.07
2022-11-30T09:08:06.438Z,36.87
2022-11-30T09:11:28.312Z,37.60
2022-11-30T09:14:29.966Z,36.70
2022-11-30T09:17:31.650Z,36.67
2022-11-30T09:20:34.012Z,34.70
2022-11-30T09:23:35.972Z,37.00
2022-11-30T09:26:37.643Z,41.90
2022-11-30T09:29:39.254Z,40.80
2022-11-30T09:32:40.932Z,43.87
2022-11-30T09:35:42.593Z,42.23
2022-11-30T09:38:44.697Z,43.03
2022-11-30T09:41:49.318Z,44.70
2022-11-30T09:44:51.173Z,63.00
2022-11-30T09:47:55.897Z,51.67
2022-11-30T09:51:00.324Z,53.83
2022-11-30T09:54:08.723Z,41.97
2022-11-30T09:57:22.654Z,42.80
2022-11-30T10:00:25.233Z,52.90
2022-11-30T10:03:26.938Z,54.67
2022-11-30T10:06:42.421Z,44.37
2022-11-30T10:10:30.365Z,47.30
2022-11-30T10:13:50.702Z,47.77
2022-11-30T10:16:55.411Z,47.43
2022-11-30T10:19:57.078Z,48.17
2022-11-30T10:23:07.129Z,49.33
2022-11-30T10:26:10.556Z,55.33
2022-11-30T10:29:19.291Z,55.73
2022-11-30T10:32:22.459Z,55.67
2022-11-30T10:35:39.484Z,59.60
2022-11-30T10:38:43.293Z,61.60
2022-11-30T10:41:48.457Z,60.73
2022-11-30T10:44:58.151Z,79.83
2022-11-30T10:48:18.590Z,74.53
2022-11-30T10:51:20.493Z,78.37
2022-11-30T10:54:22.573Z,61.37
2022-11-30T10:57:26.242Z,55.10
2022-11-30T11:00:27.776Z,54.17
2022-11-30T11:03:29.341Z,65.53
2022-11-30T11:06:30.971Z,58.10
2022-11-30T11:09:39.550Z,57.43
2022-11-30T11:12:46.521Z,56.30
2022-11-30T11:15:58.645Z,59.80
2022-11-30T11:19:00.262Z,55.40
2022-11-30T11:22:03.801Z,64.57
2022-11-30T11:25:23.581Z,54.37
2022-11-30T11:28:25.593Z,59.77
2022-11-30T11:31:42.839Z,60.50
2022-11-30T11:34:49.539Z,64.67
2022-11-30T11:37:52.851Z,67.37
2022-11-30T11:41:06.146Z,61.57
2022-11-30T11:44:07.729Z,56.47
2022-11-30T11:47:22.714Z,45.50
2022-11-30T11:50:57.852Z,52.77
2022-11-30T11:53:53.647Z,41.50
2022-11-30T11:56:56.661Z,36.43
2022-11-30T12:00:05.523Z,34.07
2022-11-30T12:03:19.320Z,31.47
2022-11-30T12:06:21.140Z,37.80
2022-11-30T12:09:25.440Z,30.53
2022-11-30T12:12:27.630Z,30.20
2022-11-30T12:15:52.796Z,32.63
2022-11-30T12:19:12.876Z,32.53
2022-11-30T12:22:37.590Z,33.67
2022-11-30T12:25:39.184Z,33.03
2022-11-30T12:28:45.447Z,30.77
2022-11-30T12:32:13.167Z,33.40
2022-11-30T12:35:27.343Z,29.33
2022-11-30T12:38:34.827Z,30.23
2022-11-30T12:41:47.836Z,28.70
2022-11-30T12:44:49.398Z,28.67
2022-11-30T12:48:02.326Z,27.00
2022-11-30T12:51:03.925Z,25.93
2022-11-30T12:54:24.321Z,35.17
2022-11-30T12:57:31.538Z,32.10
2022-11-30T13:00:44.569Z,28.10
2022-11-30T13:03:46.229Z,25.33
2022-11-30T13:06:56.100Z,24.40
2022-11-30T13:10:08.780Z,26.80
2022-11-30T13:13:18.969Z,28.63
2022-11-30T13:16:22.691Z,31.07
2022-11-30T13:19:33.387Z,32.77
2022-11-30T13:22:37.820Z,33.00
2022-11-30T13:26:07.366Z,31.60
2022-11-30T13:29:13.224Z,32.23
2022-11-30T13:32:48.566Z,34.13
2022-11-30T13:35:37.830Z,32.13
2022-11-30T13:38:39.424Z,33.93
2022-11-30T13:41:45.563Z,34.90
2022-11-30T13:44:47.550Z,35.33
2022-11-30T13:47:50.873Z,38.23
2022-11-30T13:50:52.538Z,35.17
2022-11-30T13:54:27.251Z,37.03
2022-11-30T13:57:29.851Z,42.90
2022-11-30T14:00:31.598Z,55.40
2022-11-30T14:03:33.347Z,47.83
2022-11-30T14:06:48.189Z,46.97
2022-11-30T14:09:56.797Z,59.07
2022-11-30T14:12:59.762Z,57.70
2022-11-30T14:16:02.305Z,59.17
2022-11-30T14:19:05.595Z,63.93
2022-11-30T14:22:10.840Z,59.03
2022-11-30T14:25:16.788Z,60.90
2022-11-30T14:28:19.778Z,55.77
2022-11-30T14:31:24.358Z,62.33
2022-11-30T14:34:28.926Z,65.20
2022-11-30T14:37:33.878Z,68.60
2022-11-30T14:40:35.486Z,68.07
2022-11-30T14:43:37.150Z,67.80
2022-11-30T14:46:38.822Z,61.43
2022-11-30T14:49:48.310Z,67.73
2022-11-30T14:53:08.941Z,87.23
2022-11-30T14:56:16.534Z,65.93
2022-11-30T14:59:30.084Z,62.60
2022-11-30T15:02:38.676Z,66.00
2022-11-30T15:05:42.207Z,72.27
2022-11-30T15:08:52.939Z,58.20
2022-11-30T15:11:55.159Z,89.03
2022-11-30T15:15:07.919Z,63.77
2022-11-30T15:18:17.116Z,57.30
2022-11-30T15:21:20.219Z,59.27
2022-11-30T15:24:22.120Z,70.67
2022-11-30T15:27:23.987Z,70.97
2022-11-30T15:30:25.795Z,73.80
2022-11-30T15:33:33.055Z,86.60
2022-11-30T15:36:35.603Z,123.03
2022-11-30T15:39:37.424Z,118.17
2022-11-30T15:42:40.485Z,103.27
2022-11-30T15:45:51.154Z,108.23
2022-11-30T15:49:03.880Z,91.47
2022-11-30T15:52:09.184Z,98.20
2022-11-30T15:55:30.793Z,81.63
2022-11-30T15:58:32.366Z,76.37
2022-11-30T16:02:02.151Z,77.77
2022-11-30T16:05:03.941Z,88.33
2022-11-30T16:08:13.785Z,81.20
2022-11-30T16:11:15.813Z,90.57
2022-11-30T16:14:17.799Z,100.23
2022-11-30T16:17:19.472Z,96.23
2022-11-30T16:20:21.225Z,92.47
2022-11-30T16:23:22.936Z,95.77
2022-11-30T16:29:51.820Z,98.13
2022-11-30T16:32:53.839Z,98.47
2022-11-30T16:35:55.475Z,97.40
2022-11-30T16:38:57.849Z,88.90
2022-11-30T16:41:59.567Z,96.57
2022-11-30T16:45:01.401Z,82.40
2022-11-30T16:48:03.460Z,82.67
2022-11-30T16:51:05.191Z,85.53
2022-11-30T16:54:06.903Z,88.17
2022-11-30T16:57:08.602Z,94.27
2022-11-30T17:00:11.584Z,87.70
2022-11-30T17:03:25.576Z,92.87
2022-11-30T17:06:30.825Z,99.27
2022-11-30T17:09:34.584Z,90.63
2022-11-30T17:12:36.358Z,90.23
2022-11-30T17:15:37.945Z,88.47
2022-11-30T17:18:39.551Z,82.97
2022-11-30T17:21:43.009Z,86.20
2022-11-30T17:24:44.636Z,86.90
2022-11-30T17:27:46.862Z,93.23
2022-11-30T17:30:48.766Z,86.37
2022-11-30T17:33:51.668Z,79.70
2022-11-30T17:36:56.296Z,77.07
2022-11-30T17:39:58.775Z,85.00
2022-11-30T17:43:00.520Z,85.97
2022-11-30T17:46:12.555Z,90.27
2022-11-30T17:49:14.276Z,95.00
2022-11-30T17:52:15.855Z,81.73
2022-11-30T17:55:17.491Z,83.03
2022-11-30T17:58:19.210Z,86.43
2022-11-30T18:01:25.422Z,88.40
2022-11-30T18:04:27.190Z,78.20
2022-11-30T18:07:28.934Z,85.83
2022-11-30T18:10:30.588Z,84.50
2022-11-30T18:13:32.266Z,79.90
2022-11-30T18:16:38.714Z,74.20
2022-11-30T18:19:40.589Z,83.67
2022-11-30T18:22:42.407Z,81.57
2022-11-30T18:25:44.232Z,85.07
2022-11-30T18:28:46.034Z,92.97
2022-11-30T18:31:51.412Z,115.80
2022-11-30T18:34:53.019Z,110.83
2022-11-30T18:37:57.416Z,112.93
2022-11-30T18:40:59.239Z,118.53
2022-11-30T18:44:00.885Z,113.97
2022-11-30T18:47:02.454Z,103.53
2022-11-30T18:50:04.327Z,101.30
2022-11-30T18:53:06.025Z,105.30
2022-11-30T18:56:13.163Z,99.23
2022-11-30T18:59:15.013Z,112.57
2022-11-30T19:02:19.115Z,102.17
2022-11-30T19:05:34.915Z,103.90
2022-11-30T19:08:37.177Z,100.43
2022-11-30T19:11:39.739Z,105.20
2022-11-30T19:14:43.066Z,108.40
2022-11-30T19:17:47.781Z,97.80
2022-11-30T19:20:50.430Z,99.20
2022-11-30T19:23:52.032Z,94.30
2022-11-30T19:26:53.731Z,85.63
2022-11-30T19:29:55.322Z,80.93
2022-11-30T19:32:56.938Z,92.77
2022-11-30T19:36:01.914Z,74.07
2022-11-30T19:39:03.628Z,83.33
2022-11-30T19:42:07.159Z,81.70
2022-11-30T19:45:08.955Z,84.50
2022-11-30T19:48:10.606Z,85.57
2022-11-30T19:51:16.445Z,92.13
2022-11-30T19:54:19.553Z,82.60
2022-11-30T19:57:21.153Z,86.33
2022-11-30T20:00:22.757Z,82.80
2022-11-30T20:03:24.423Z,77.97
2022-11-30T20:06:30.326Z,74.03
2022-11-30T20:09:33.084Z,80.63
2022-11-30T20:12:34.715Z,84.67
2022-11-30T20:15:47.335Z,77.37
2022-11-30T20:19:00.287Z,81.20
2022-11-30T20:22:04.824Z,92.03
2022-11-30T20:25:06.951Z,90.07
2022-11-30T20:28:12.547Z,90.03
2022-11-30T20:31:16.087Z,84.30
2022-11-30T20:34:17.948Z,82.37
2022-11-30T20:37:24.458Z,60.37
2022-11-30T20:40:26.199Z,60.20
2022-11-30T20:43:28.001Z,58.63
2022-11-30T20:46:35.852Z,67.00
2022-11-30T20:49:37.851Z,67.17
2022-11-30T20:52:39.873Z,60.13
2022-11-30T20:55:42.110Z,58.73
2022-11-30T20:58:47.714Z,55.00
2022-11-30T21:01:53.448Z,51.20
2022-11-30T21:04:56.236Z,50.67
2022-11-30T21:08:07.783Z,51.70
2022-11-30T21:11:14.053Z,49.27
2022-11-30T21:14:17.871Z,46.83
2022-11-30T21:17:19.612Z,46.63
2022-11-30T21:20:21.311Z,50.83
2022-11-30T21:23:27.741Z,52.03
2022-11-30T21:26:30.574Z,54.07
2022-11-30T21:29:32.129Z,49.63
2022-11-30T21:32:33.861Z,49.97
2022-11-30T21:35:37.538Z,50.23
2022-11-30T21:38:39.144Z,47.80
2022-11-30T21:41:40.951Z,41.40
2022-11-30T21:44:42.518Z,46.27
2022-11-30T21:47:44.151Z,49.60
2022-11-30T21:50:45.770Z,44.00
2022-11-30T21:53:49.475Z,45.00
2022-11-30T21:56:52.643Z,38.03
2022-11-30T21:59:54.204Z,36.03
2022-11-30T22:02:55.803Z,35.90
2022-11-30T22:06:01.175Z,38.53
2022-11-30T22:09:07.671Z,32.30
2022-11-30T22:12:09.321Z,24.40
2022-11-30T22:15:11.085Z,22.87
2022-11-30T22:18:12.700Z,23.60
2022-11-30T22:21:15.457Z,28.67
2022-11-30T22:24:17.897Z,23.77
2022-11-30T22:27:19.545Z,20.27
2022-11-30T22:30:21.310Z,21.70
2022-11-30T22:33:22.897Z,20.23
2022-11-30T22:36:26.006Z,21.23
2022-11-30T22:39:27.713Z,24.57
2022-11-30T22:42:29.334Z,18.60
2022-11-30T22:45:32.926Z,21.33
2022-11-30T22:48:34.838Z,19.00
2022-11-30T22:51:37.666Z,17.73
2022-11-30T22:54:39.350Z,17.57
2022-11-30T22:57:41.042Z,15.37
2022-11-30T23:00:42.651Z,14.27
2022-11-30T23:03:45.267Z,11.53
2022-11-30T23:06:47.614Z,12.90
2022-11-30T23:09:49.411Z,12.13
2022-11-30T23:12:59.590Z,15.37
2022-11-30T23:16:01.986Z,18.33
2022-11-30T23:19:04.119Z,18.47
2022-11-30T23:22:05.791Z,18.00
2022-11-30T23:25:07.545Z,15.93
2022-11-30T23:28:09.134Z,16.27
2022-11-30T23:31:34.050Z,13.60
2022-11-30T23:34:37.288Z,13.40
2022-11-30T23:37:38.897Z,13.33
2022-11-30T23:40:40.548Z,13.00
2022-11-30T23:43:42.694Z,12.13
2022-11-30T23:46:44.461Z,12.23
2022-11-30T23:49:46.205Z,11.43
2022-11-30T23:52:47.879Z,11.00
2022-11-30T23:55:50.036Z,11.10
2022-11-30T23:58:51.741Z,10.77
